Time;durP1;ratioP1;P1;durP2;ratioP2;P2;SDS_P1;SDS_P2;PMS_P1;PMS_P2;Temp;Humidity;BMP_temperature;BMP_pressure;BME280_temperature;BME280_humidity;BME280_pressure;Samples;Min_cycle;Max_cycle;Signal;HPM_P1;HPM_P2
2022/09/27 00:00:21;;;;;;;1.70;1.10;;;13.50;78.80;;;;;;4994992;28;20121;-45
2022/09/27 00:02:48;;;;;;;5.85;1.50;;;13.50;78.80;;;;;;4989850;28;20042;-44
2022/09/27 00:05:15;;;;;;;2.58;1.25;;;13.50;78.80;;;;;;4986554;28;20041;-44
2022/09/27 00:07:44;;;;;;;0.65;0.45;;;13.50;79.00;;;;;;4986174;28;20046;-45
2022/09/27 00:10:12;;;;;;;2.20;1.05;;;13.50;79.00;;;;;;4979817;28;20462;-46
2022/09/27 00:12:39;;;;;;;1.77;1.00;;;13.50;79.10;;;;;;4983449;28;20043;-45
2022/09/27 00:15:07;;;;;;;2.75;1.65;;;13.40;79.00;;;;;;4986249;28;20043;-45
2022/09/27 00:17:38;;;;;;;5.53;1.50;;;13.40;79.00;;;;;;4978336;28;20502;-45
2022/09/27 00:20:07;;;;;;;1.88;1.77;;;13.50;79.10;;;;;;4985520;28;20293;-45
2022/09/27 00:22:34;;;;;;;3.30;1.88;;;13.40;79.10;;;;;;4984227;28;20047;-45
2022/09/27 00:25:06;;;;;;;2.40;1.58;;;13.40;79.20;;;;;;4986044;28;20118;-46
2022/09/27 00:27:34;;;;;;;5.22;2.15;;;13.40;79.20;;;;;;4994151;28;20042;-45
2022/09/27 00:30:01;;;;;;;5.80;3.13;;;13.40;79.30;;;;;;4966798;28;20134;-46
2022/09/27 00:32:28;;;;;;;3.53;2.10;;;13.40;79.50;;;;;;4982847;28;20042;-46
2022/09/27 00:34:58;;;;;;;3.05;2.40;;;13.40;79.50;;;;;;4994040;28;20149;-45
2022/09/27 00:37:26;;;;;;;2.53;2.33;;;13.50;79.60;;;;;;4993891;28;20042;-45
2022/09/27 00:39:54;;;;;;;4.68;2.25;;;13.40;79.50;;;;;;4967517;28;20093;-45
2022/09/27 00:42:24;;;;;;;3.38;2.00;;;13.40;79.50;;;;;;4982320;28;20129;-45
2022/09/27 00:45:00;;;;;;;7.95;2.30;;;13.40;79.50;;;;;;4968011;28;20065;-45
2022/09/27 00:47:33;;;;;;;3.47;1.90;;;13.40;79.70;;;;;;4993974;28;20468;-46
2022/09/27 00:50:28;;;;;;;3.92;2.40;;;13.50;79.60;;;;;;4980716;28;20045;-46
2022/09/27 00:53:14;;;;;;;4.60;2.85;;;13.50;80.00;;;;;;4953860;28;20086;-46
2022/09/27 00:55:47;;;;;;;3.58;2.15;;;13.40;79.40;;;;;;4937762;29;20051;-46
2022/09/27 00:58:23;;;;;;;4.13;2.47;;;13.40;79.50;;;;;;4983331;28;20055;-45
2022/09/27 01:00:57;;;;;;;6.50;3.53;;;13.40;79.50;;;;;;4981667;28;20042;-46
2022/09/27 01:03:47;;;;;;;6.40;3.75;;;13.40;79.70;;;;;;4984943;28;20426;-45
2022/09/27 01:06:18;;;;;;;4.43;3.53;;;13.50;79.80;;;;;;4991463;28;20042;-45
2022/09/27 01:08:45;;;;;;;5.60;4.00;;;13.50;79.60;;;;;;4972183;28;20503;-46
2022/09/27 01:11:11;;;;;;;4.85;4.45;;;13.50;79.60;;;;;;4968078;28;20141;-45
2022/09/27 01:14:08;;;;;;;5.47;4.63;;;13.40;79.60;;;;;;4991717;28;20039;-45
2022/09/27 01:16:59;;;;;;;6.15;4.93;;;13.50;80.00;;;;;;4965192;28;20074;-45
2022/09/27 01:19:44;;;;;;;4.40;4.00;;;13.50;80.10;;;;;;4978828;28;20066;-46
2022/09/27 01:22:37;;;;;;;7.55;4.63;;;13.50;80.10;;;;;;4955403;28;20142;-45
2022/09/27 01:25:23;;;;;;;7.60;5.25;;;13.50;79.80;;;;;;4950455;29;20047;-45
2022/09/27 01:28:07;;;;;;;6.07;5.32;;;13.50;79.80;;;;;;4967796;28;20459;-45
2022/09/27 01:30:38;;;;;;;6.80;4.38;;;13.50;80.00;;;;;;4967114;28;20462;-45
2022/09/27 01:33:19;;;;;;;4.32;3.88;;;13.50;79.70;;;;;;4963263;28;20043;-46
2022/09/27 01:36:07;;;;;;;5.40;3.80;;;13.50;79.80;;;;;;4975820;28;20054;-46
2022/09/27 01:39:15;;;;;;;4.13;3.40;;;13.50;79.80;;;;;;4953894;28;20097;-45
2022/09/27 01:42:30;;;;;;;3.00;2.78;;;13.50;79.90;;;;;;4950681;28;20055;-45
2022/09/27 01:45:20;;;;;;;3.83;2.88;;;13.50;79.50;;;;;;4964665;28;20038;-45
2022/09/27 01:48:02;;;;;;;3.15;2.25;;;13.50;79.10;;;;;;4954872;28;20032;-45
2022/09/27 01:51:05;;;;;;;4.13;2.00;;;13.40;78.80;;;;;;4947121;28;20126;-45
2022/09/27 01:53:37;;;;;;;;;;;13.40;78.80;;;;;;4956206;28;20411;-45
2022/09/27 01:56:36;;;;;;;2.80;1.50;;;13.50;79.30;;;;;;4969485;28;19961;-46
2022/09/27 01:59:27;;;;;;;1.35;1.25;;;13.40;78.70;;;;;;4975207;28;20443;-45
2022/09/27 02:02:10;;;;;;;1.42;1.30;;;13.40;78.80;;;;;;4955797;28;20518;-45
2022/09/27 02:05:00;;;;;;;3.13;1.63;;;13.30;78.70;;;;;;4980825;28;20049;-45
2022/09/27 02:07:48;;;;;;;2.17;1.33;;;13.30;78.50;;;;;;4966458;28;20499;-45
2022/09/27 02:10:20;;;;;;;3.40;1.08;;;13.30;78.80;;;;;;4968780;28;20483;-46
2022/09/27 02:13:26;;;;;;;1.23;1.13;;;13.20;78.60;;;;;;4980382;28;20405;-45
2022/09/27 02:16:09;;;;;;;1.98;1.10;;;13.20;78.90;;;;;;4967511;28;20531;-45
2022/09/27 02:19:19;;;;;;;3.00;1.13;;;13.20;78.70;;;;;;4971503;28;20046;-45
2022/09/27 02:21:58;;;;;;;3.28;1.30;;;13.20;79.00;;;;;;4957614;28;20047;-44
2022/09/27 02:24:52;;;;;;;3.42;1.10;;;13.20;78.70;;;;;;4955546;28;20051;-45
2022/09/27 02:27:28;;;;;;;3.40;1.17;;;13.20;78.90;;;;;;4947296;28;20419;-45
2022/09/27 02:30:04;;;;;;;3.17;0.82;;;13.10;78.70;;;;;;4943380;28;20097;-46
2022/09/27 02:32:35;;;;;;;1.85;1.13;;;13.10;78.70;;;;;;4947689;28;20415;-45
2022/09/27 02:35:21;;;;;;;2.80;0.80;;;13.10;78.80;;;;;;4948949;28;20090;-45
2022/09/27 02:37:49;;;;;;;1.73;0.90;;;13.10;78.90;;;;;;4952670;28;20508;-45
2022/09/27 02:40:17;;;;;;;2.30;0.93;;;13.10;78.80;;;;;;4940547;29;20047;-45
2022/09/27 02:42:44;;;;;;;1.80;0.90;;;13.10;78.80;;;;;;4956254;28;20089;-45
2022/09/27 02:45:16;;;;;;;1.80;0.93;;;13.00;78.70;;;;;;4968392;28;20042;-46
2022/09/27 02:47:55;;;;;;;3.72;0.90;;;13.00;78.90;;;;;;4973050;28;20447;-47
2022/09/27 02:50:53;;;;;;;2.60;1.35;;;13.00;79.00;;;;;;4971488;28;20043;-46
2022/09/27 02:54:17;;;;;;;2.13;0.98;;;13.00;79.30;;;;;;4985732;28;20426;-45
2022/09/27 02:57:22;;;;;;;5.90;1.15;;;13.00;79.30;;;;;;4938283;29;20059;-47
2022/09/27 03:00:03;;;;;;;2.15;1.30;;;13.00;78.80;;;;;;4976981;28;20042;-45
2022/09/27 03:03:11;;;;;;;1.35;0.90;;;13.00;78.70;;;;;;4929002;28;20050;-46
2022/09/27 03:05:59;;;;;;;1.80;1.63;;;13.00;78.70;;;;;;4973858;28;20050;-46
2022/09/27 03:08:28;;;;;;;3.85;1.10;;;13.00;78.80;;;;;;4966112;28;20093;-46
2022/09/27 03:10:57;;;;;;;3.80;1.30;;;13.00;78.70;;;;;;4985814;28;20526;-45
2022/09/27 03:13:24;;;;;;;4.18;1.23;;;12.90;78.60;;;;;;4979872;28;20042;-47
2022/09/27 03:15:52;;;;;;;1.75;0.80;;;12.90;78.60;;;;;;4968293;28;20058;-45
2022/09/27 03:18:46;;;;;;;2.05;0.47;;;12.90;78.70;;;;;;4961544;28;20063;-46
2022/09/27 03:21:45;;;;;;;3.30;1.02;;;12.90;78.50;;;;;;4928245;28;20064;-46
2022/09/27 03:24:15;;;;;;;2.97;0.93;;;12.80;78.50;;;;;;4953700;28;20051;-47
2022/09/27 03:26:45;;;;;;;1.40;1.05;;;12.90;79.30;;;;;;4959552;28;20081;-45
2022/09/27 03:29:12;;;;;;;1.83;0.80;;;12.80;78.70;;;;;;4959277;28;20507;-45
2022/09/27 03:31:48;;;;;;;0.98;0.50;;;12.80;78.60;;;;;;4972802;28;20515;-47
2022/09/27 03:34:47;;;;;;;2.35;0.73;;;12.80;78.50;;;;;;4976567;28;20085;-46
2022/09/27 03:37:14;;;;;;;4.32;0.50;;;12.80;78.40;;;;;;4975352;28;20073;-45
2022/09/27 03:39:46;;;;;;;2.42;0.60;;;12.80;78.20;;;;;;4975410;28;20043;-45
2022/09/27 03:42:18;;;;;;;2.65;0.85;;;12.80;78.10;;;;;;4969029;28;20042;-44
2022/09/27 03:44:50;;;;;;;1.35;0.45;;;12.70;78.20;;;;;;4975645;28;20076;-45
2022/09/27 03:47:16;;;;;;;3.10;0.80;;;12.70;78.20;;;;;;4963156;28;20061;-46
2022/09/27 03:49:43;;;;;;;1.88;0.47;;;12.80;78.60;;;;;;4975946;28;20043;-45
2022/09/27 03:52:10;;;;;;;2.08;0.80;;;12.70;78.60;;;;;;4986803;28;20066;-45
2022/09/27 03:54:37;;;;;;;2.33;0.60;;;12.70;78.80;;;;;;4987639;28;20806;-46
2022/09/27 03:57:06;;;;;;;1.77;0.60;;;12.70;78.80;;;;;;4958655;28;20106;-46
2022/09/27 03:59:39;;;;;;;1.35;0.60;;;12.70;78.80;;;;;;4956557;28;20059;-45
2022/09/27 04:02:31;;;;;;;5.40;0.88;;;12.70;78.80;;;;;;4965539;28;20508;-44
2022/09/27 04:05:16;;;;;;;1.15;0.75;;;12.70;78.70;;;;;;4972556;28;20053;-46
2022/09/27 04:07:48;;;;;;;1.42;0.50;;;12.70;78.50;;;;;;4963877;28;20729;-45
2022/09/27 04:10:22;;;;;;;2.20;0.73;;;12.70;78.50;;;;;;4956157;28;20071;-46
2022/09/27 04:12:54;;;;;;;1.17;0.50;;;12.70;78.40;;;;;;4948483;28;20123;-46
2022/09/27 04:15:41;;;;;;;3.30;0.95;;;12.60;78.30;;;;;;4951495;28;20054;-47
2022/09/27 04:18:37;;;;;;;1.88;0.52;;;12.60;78.30;;;;;;4961470;28;20575;-46
2022/09/27 04:21:12;;;;;;;2.53;0.68;;;12.60;78.20;;;;;;4963733;28;20077;-45
2022/09/27 04:23:46;;;;;;;2.03;0.40;;;12.60;78.80;;;;;;4962534;28;20058;-45
2022/09/27 04:26:18;;;;;;;1.75;0.63;;;12.60;78.10;;;;;;4979116;28;20558;-45
2022/09/27 04:28:56;;;;;;;2.17;0.70;;;12.50;78.20;;;;;;4973677;28;20070;-44
2022/09/27 04:31:26;;;;;;;2.17;0.60;;;12.50;78.30;;;;;;4962067;28;20137;-46
2022/09/27 04:34:16;;;;;;;1.05;0.40;;;12.50;78.40;;;;;;4955676;28;20043;-46
2022/09/27 04:36:45;;;;;;;2.95;0.70;;;12.50;78.30;;;;;;4973119;28;20043;-47
2022/09/27 04:39:21;;;;;;;3.70;0.50;;;12.50;78.10;;;;;;4948518;28;20466;-45
2022/09/27 04:41:50;;;;;;;1.08;0.52;;;12.50;78.00;;;;;;4954621;28;20050;-46
2022/09/27 04:44:17;;;;;;;1.60;0.40;;;12.50;77.90;;;;;;4959481;28;20070;-45
2022/09/27 04:46:48;;;;;;;4.32;0.60;;;12.50;77.80;;;;;;4958626;28;20045;-46
2022/09/27 04:49:20;;;;;;;2.70;0.63;;;12.50;77.80;;;;;;4966237;28;20053;-46
2022/09/27 04:51:47;;;;;;;2.13;0.60;;;12.50;77.80;;;;;;4961291;28;20042;-46
2022/09/27 04:54:14;;;;;;;1.13;0.40;;;12.50;77.80;;;;;;4975758;28;20074;-46
2022/09/27 04:56:54;;;;;;;0.75;0.65;;;12.40;77.90;;;;;;4962826;28;20046;-45
2022/09/27 04:59:21;;;;;;;1.02;0.60;;;12.40;78.00;;;;;;4956765;28;20061;-45
2022/09/27 05:01:49;;;;;;;2.00;0.90;;;12.40;78.00;;;;;;4976449;28;20070;-46
2022/09/27 05:04:39;;;;;;;1.65;0.40;;;12.40;78.10;;;;;;4955539;28;20141;-45
2022/09/27 05:07:09;;;;;;;0.95;0.40;;;12.40;78.20;;;;;;4967475;28;20503;-45
2022/09/27 05:09:42;;;;;;;4.15;0.63;;;12.40;78.20;;;;;;4962422;28;20043;-48
2022/09/27 05:12:10;;;;;;;2.47;0.55;;;12.50;78.30;;;;;;4968875;28;20122;-44
2022/09/27 05:15:06;;;;;;;2.58;0.77;;;12.40;78.30;;;;;;4973443;28;20720;-47
2022/09/27 05:17:52;;;;;;;3.00;0.93;;;12.40;78.10;;;;;;4975701;28;20054;-45
2022/09/27 05:20:33;;;;;;;3.33;0.70;;;12.50;77.90;;;;;;4973905;28;20046;-46
2022/09/27 05:23:08;;;;;;;1.83;0.52;;;12.50;77.90;;;;;;4964417;28;20042;-46
2022/09/27 05:25:37;;;;;;;1.95;0.50;;;12.40;77.90;;;;;;4953544;28;20162;-49
2022/09/27 05:28:04;;;;;;;1.75;0.60;;;12.40;77.70;;;;;;4954089;28;20129;-48
2022/09/27 05:30:31;;;;;;;2.17;0.85;;;12.40;77.80;;;;;;4984804;28;20046;-48
2022/09/27 05:33:12;;;;;;;1.95;0.70;;;12.40;77.80;;;;;;4962410;28;20046;-49
2022/09/27 05:35:46;;;;;;;1.05;0.40;;;12.40;77.80;;;;;;4961096;28;20519;-51
2022/09/27 05:38:14;;;;;;;2.60;0.40;;;12.40;77.90;;;;;;4959585;28;20051;-50
2022/09/27 05:40:49;;;;;;;1.52;0.43;;;12.40;78.00;;;;;;4968879;28;20289;-50
2022/09/27 05:43:20;;;;;;;1.33;0.40;;;12.50;78.00;;;;;;4963226;28;20050;-49
2022/09/27 05:45:49;;;;;;;1.73;0.70;;;12.40;77.90;;;;;;4963420;28;20055;-52
2022/09/27 05:48:17;;;;;;;2.70;0.70;;;12.40;77.90;;;;;;4959271;28;20066;-48
2022/09/27 05:50:59;;;;;;;1.23;0.68;;;12.40;77.80;;;;;;4959562;28;20134;-50
2022/09/27 05:53:26;;;;;;;2.13;1.15;;;12.40;77.90;;;;;;4953561;28;20523;-50
2022/09/27 05:55:53;;;;;;;2.67;1.02;;;12.50;78.00;;;;;;4970672;28;20454;-48
2022/09/27 05:58:30;;;;;;;3.20;1.25;;;12.40;78.00;;;;;;4981253;28;20534;-52
2022/09/27 06:01:09;;;;;;;1.42;0.98;;;12.50;78.20;;;;;;4966952;28;20062;-51
2022/09/27 06:04:11;;;;;;;2.30;1.23;;;12.50;78.10;;;;;;4910343;29;20060;-49
2022/09/27 06:06:47;;;;;;;3.38;1.20;;;12.50;77.90;;;;;;4961845;28;20165;-51
2022/09/27 06:09:15;;;;;;;2.42;1.13;;;12.50;77.90;;;;;;4962681;28;20043;-50
2022/09/27 06:11:46;;;;;;;2.08;0.98;;;12.50;77.80;;;;;;4957437;28;20038;-48
2022/09/27 06:14:15;;;;;;;1.65;1.05;;;12.50;77.80;;;;;;4961839;28;20050;-48
2022/09/27 06:16:53;;;;;;;4.00;1.23;;;12.50;77.60;;;;;;4954000;28;20155;-50
2022/09/27 06:19:24;;;;;;;3.20;1.40;;;12.50;77.50;;;;;;4955818;28;20051;-47
2022/09/27 06:21:58;;;;;;;2.00;1.10;;;12.60;77.50;;;;;;4958964;28;20105;-49
2022/09/27 06:24:35;;;;;;;1.70;1.23;;;12.60;77.40;;;;;;4935385;28;20310;-49
2022/09/27 06:27:08;;;;;;;2.30;0.65;;;12.60;77.10;;;;;;4960499;28;20053;-50
2022/09/27 06:29:56;;;;;;;1.63;0.50;;;12.60;76.90;;;;;;4982134;28;20045;-49
2022/09/27 06:32:37;;;;;;;;;;;12.60;76.90;;;;;;4972440;28;20042;-49
2022/09/27 06:35:28;;;;;;;3.08;0.77;;;12.70;77.10;;;;;;4963064;28;19926;-51
2022/09/27 06:37:54;;;;;;;2.05;1.10;;;12.70;76.90;;;;;;4981327;28;20118;-49
2022/09/27 06:40:26;;;;;;;2.05;0.90;;;12.70;76.90;;;;;;4963714;28;20046;-48
2022/09/27 06:43:19;;;;;;;2.50;0.70;;;12.70;76.90;;;;;;4967750;28;20063;-50
2022/09/27 06:46:07;;;;;;;3.25;0.60;;;12.70;76.60;;;;;;4961105;28;20121;-48
2022/09/27 06:48:49;;;;;;;3.22;0.70;;;12.70;76.50;;;;;;4950678;28;20043;-48
2022/09/27 06:51:22;;;;;;;0.50;0.50;;;12.70;76.40;;;;;;4948093;28;20141;-49
2022/09/27 06:53:49;;;;;;;1.80;0.60;;;12.70;76.40;;;;;;4984558;28;20047;-50
2022/09/27 06:56:16;;;;;;;0.60;0.40;;;12.70;76.50;;;;;;4952205;28;20058;-49
2022/09/27 07:01:44;;;;;;;0.70;0.43;;;12.70;76.60;;;;;;4978169;28;20046;-48
2022/09/27 07:04:29;;;;;;;1.30;0.55;;;12.70;76.50;;;;;;4973829;28;20054;-49
2022/09/27 07:07:06;;;;;;;0.60;0.50;;;12.70;76.50;;;;;;4960295;28;20046;-49
2022/09/27 07:09:38;;;;;;;1.10;0.45;;;12.70;76.60;;;;;;4963054;28;20130;-51
2022/09/27 07:12:10;;;;;;;0.90;0.45;;;12.70;76.40;;;;;;4953402;28;20066;-51
2022/09/27 07:14:36;;;;;;;0.63;0.40;;;12.80;76.50;;;;;;4958445;28;20125;-48
2022/09/27 07:17:07;;;;;;;1.88;0.57;;;12.80;76.60;;;;;;4963421;28;20047;-48
2022/09/27 07:19:40;;;;;;;2.50;0.40;;;12.80;76.50;;;;;;4967664;28;20080;-49
2022/09/27 07:22:08;;;;;;;1.40;0.75;;;12.90;76.30;;;;;;4960112;28;20074;-50
2022/09/27 07:24:39;;;;;;;1.98;0.70;;;12.90;76.00;;;;;;4952671;28;20054;-47
2022/09/27 07:27:06;;;;;;;1.13;0.70;;;13.00;76.00;;;;;;4963546;28;20418;-50
2022/09/27 07:29:35;;;;;;;1.27;0.50;;;13.00;76.10;;;;;;4972199;28;20046;-50
2022/09/27 07:32:05;;;;;;;1.25;0.68;;;13.00;76.20;;;;;;4962736;28;20130;-49
2022/09/27 07:34:35;;;;;;;0.40;0.40;;;13.00;76.20;;;;;;4976692;28;20045;-49
2022/09/27 07:37:04;;;;;;;1.27;0.20;;;13.10;75.90;;;;;;4964786;28;20054;-49
2022/09/27 07:39:37;;;;;;;1.17;0.30;;;13.10;75.60;;;;;;4972312;28;20050;-50
2022/09/27 07:42:12;;;;;;;0.30;0.20;;;13.10;75.60;;;;;;4954323;28;20046;-49
2022/09/27 07:44:44;;;;;;;0.57;0.25;;;13.10;75.20;;;;;;4970113;28;20713;-48
2022/09/27 07:47:50;;;;;;;1.15;0.50;;;13.10;75.20;;;;;;4915103;29;20469;-49
2022/09/27 07:50:38;;;;;;;2.50;0.98;;;13.20;75.00;;;;;;4951466;28;20046;-48
2022/09/27 07:53:23;;;;;;;2.53;0.47;;;13.20;74.80;;;;;;4981221;28;20053;-50
2022/09/27 07:55:56;;;;;;;1.98;0.50;;;13.20;75.00;;;;;;4964106;28;20054;-52
2022/09/27 07:58:24;;;;;;;1.45;0.70;;;13.20;74.90;;;;;;4968696;28;20046;-52
2022/09/27 08:00:57;;;;;;;0.60;0.40;;;13.30;74.90;;;;;;4950701;28;20041;-49
2022/09/27 08:03:26;;;;;;;0.70;0.32;;;13.20;75.00;;;;;;4968474;28;20404;-48
2022/09/27 08:05:53;;;;;;;3.70;0.47;;;13.30;74.90;;;;;;4966481;28;20057;-52
2022/09/27 08:08:27;;;;;;;2.42;0.65;;;13.30;74.90;;;;;;4972951;28;20392;-50
2022/09/27 08:10:54;;;;;;;0.30;0.30;;;13.30;74.90;;;;;;4966110;28;20045;-51
2022/09/27 08:13:22;;;;;;;2.92;0.68;;;13.40;75.40;;;;;;4962071;28;20098;-50
2022/09/27 08:15:51;;;;;;;1.10;0.47;;;13.40;75.60;;;;;;4984248;28;20090;-51
2022/09/27 08:18:23;;;;;;;2.78;1.17;;;13.50;75.80;;;;;;4958882;28;20067;-52
2022/09/27 08:20:59;;;;;;;1.63;0.77;;;13.50;75.70;;;;;;4984520;28;20073;-51
2022/09/27 08:23:49;;;;;;;2.08;0.80;;;13.70;75.80;;;;;;4958833;28;20515;-48
2022/09/27 08:26:27;;;;;;;1.23;0.95;;;13.70;75.60;;;;;;4955977;28;20446;-52
2022/09/27 08:29:11;;;;;;;;;;;13.80;75.40;;;;;;4964611;28;20063;-51
2022/09/27 08:31:42;;;;;;;1.73;1.03;;;13.90;75.50;;;;;;4989032;28;19928;-49
2022/09/27 08:34:14;;;;;;;2.00;1.00;;;14.00;75.20;;;;;;4987965;28;20273;-51
2022/09/27 08:36:43;;;;;;;3.13;0.85;;;14.10;74.80;;;;;;4975738;28;20050;-53
2022/09/27 08:39:17;;;;;;;4.72;1.30;;;14.10;74.60;;;;;;4962829;28;20081;-50
2022/09/27 08:42:09;;;;;;;;;;;14.10;74.40;;;;;;4965218;28;20039;-52
2022/09/27 08:45:12;;;;;;;1.60;0.90;;;14.20;74.60;;;;;;4957128;28;20016;-53
2022/09/27 08:47:48;;;;;;;3.78;1.48;;;14.30;73.70;;;;;;4979910;28;20470;-51
2022/09/27 08:50:28;;;;;;;1.50;1.23;;;14.30;73.60;;;;;;4986399;28;20050;-52
2022/09/27 08:53:07;;;;;;;1.90;1.13;;;14.30;74.20;;;;;;4961007;28;20137;-52
2022/09/27 08:55:44;;;;;;;1.60;1.50;;;14.40;75.20;;;;;;4976919;28;20044;-51
2022/09/27 08:58:25;;;;;;;2.30;1.38;;;14.50;74.30;;;;;;4968479;28;20081;-52
2022/09/27 09:00:57;;;;;;;1.45;1.20;;;14.60;73.50;;;;;;4984951;28;20748;-51
2022/09/27 09:03:30;;;;;;;3.50;1.65;;;14.70;73.80;;;;;;4959944;28;20101;-53
2022/09/27 09:06:18;;;;;;;2.97;1.50;;;14.80;74.00;;;;;;4965331;28;20098;-51
2022/09/27 09:08:44;;;;;;;2.80;1.20;;;14.90;72.40;;;;;;4969491;28;20109;-49
2022/09/27 09:14:50;;;;;;;0.82;0.70;;;14.90;71.30;;;;;;4962012;28;20043;-49
2022/09/27 09:17:36;;;;;;;1.80;1.20;;;15.00;72.20;;;;;;4966212;28;20503;-48
2022/09/27 09:20:50;;;;;;;3.42;1.55;;;14.90;70.80;;;;;;4981261;28;20529;-51
2022/09/27 09:23:58;;;;;;;1.85;1.05;;;14.90;70.60;;;;;;4961578;28;20042;-51
2022/09/27 09:27:08;;;;;;;2.45;1.50;;;14.90;70.60;;;;;;4982140;28;20559;-52
2022/09/27 09:30:08;;;;;;;1.70;1.60;;;14.80;70.40;;;;;;4975595;28;20043;-49
2022/09/27 09:33:09;;;;;;;2.45;0.93;;;14.70;70.80;;;;;;4972496;28;20050;-49
2022/09/27 09:35:47;;;;;;;2.45;1.02;;;14.70;71.00;;;;;;4970586;28;20715;-50
2022/09/27 09:38:23;;;;;;;2.53;1.38;;;14.60;71.60;;;;;;4969253;28;20042;-49
2022/09/27 09:41:30;;;;;;;1.65;1.52;;;14.60;71.60;;;;;;4973814;28;20055;-49
2022/09/27 09:44:18;;;;;;;1.88;1.70;;;14.50;71.80;;;;;;4956254;28;20073;-48
2022/09/27 09:46:54;;;;;;;2.67;1.83;;;14.50;72.30;;;;;;4988055;28;20057;-49
2022/09/27 09:49:24;;;;;;;1.95;1.67;;;14.50;71.80;;;;;;4971393;28;20073;-52
2022/09/27 09:52:01;;;;;;;2.83;1.85;;;14.40;71.70;;;;;;4971569;28;20042;-48
2022/09/27 09:54:46;;;;;;;4.88;2.10;;;14.50;71.90;;;;;;4966091;28;20137;-49
2022/09/27 09:57:26;;;;;;;2.08;1.92;;;14.40;71.70;;;;;;4968911;28;20057;-49
2022/09/27 10:00:13;;;;;;;2.45;2.00;;;14.30;71.80;;;;;;4967082;28;20647;-51
2022/09/27 10:02:51;;;;;;;3.10;2.20;;;14.30;72.60;;;;;;4968923;28;20146;-49
2022/09/27 10:05:25;;;;;;;3.58;3.20;;;14.30;72.50;;;;;;4967386;28;20537;-52
2022/09/27 10:08:11;;;;;;;3.13;2.40;;;14.30;72.80;;;;;;4961833;28;20141;-50
2022/09/27 10:10:42;;;;;;;3.15;2.40;;;14.30;72.80;;;;;;4961624;28;20114;-52
2022/09/27 10:13:40;;;;;;;2.70;2.50;;;14.30;72.80;;;;;;4956678;28;20121;-49
2022/09/27 10:16:14;;;;;;;2.92;2.30;;;14.30;72.70;;;;;;4953467;28;20101;-52
2022/09/27 10:18:46;;;;;;;2.80;2.50;;;14.30;73.00;;;;;;4985151;28;20426;-48
2022/09/27 10:21:24;;;;;;;2.25;2.05;;;14.30;73.00;;;;;;4957793;28;20510;-51
2022/09/27 10:24:10;;;;;;;2.58;2.38;;;14.40;72.90;;;;;;4966231;28;20049;-51
2022/09/27 10:27:02;;;;;;;4.63;2.40;;;14.40;72.60;;;;;;4952831;29;20055;-48
2022/09/27 10:29:38;;;;;;;3.30;2.20;;;14.50;72.80;;;;;;4939344;28;20080;-49
2022/09/27 10:32:22;;;;;;;;;;;14.60;72.80;;;;;;4981975;28;20038;-48
2022/09/27 10:34:55;;;;;;;2.35;2.20;;;14.60;72.80;;;;;;4974791;28;19922;-49
2022/09/27 10:37:30;;;;;;;2.60;2.40;;;14.70;72.90;;;;;;4966930;28;20057;-50
2022/09/27 10:40:29;;;;;;;3.47;3.08;;;14.80;72.90;;;;;;4964982;28;20050;-52
2022/09/27 10:43:01;;;;;;;3.35;2.25;;;14.80;72.50;;;;;;4962008;28;20070;-52
2022/09/27 10:45:47;;;;;;;2.97;2.78;;;14.90;72.80;;;;;;4974057;28;20054;-49
2022/09/27 10:48:23;;;;;;;2.75;2.47;;;15.00;72.60;;;;;;4971365;28;20503;-49
2022/09/27 10:51:00;;;;;;;3.55;2.55;;;15.10;72.70;;;;;;4973607;28;20177;-50
2022/09/27 10:53:47;;;;;;;3.65;2.38;;;15.20;72.70;;;;;;4965615;28;20419;-52
2022/09/27 10:56:34;;;;;;;3.15;2.10;;;15.40;73.30;;;;;;4967600;28;20503;-51
2022/09/27 10:59:04;;;;;;;3.30;2.50;;;15.50;73.20;;;;;;4952413;28;20038;-53
2022/09/27 11:01:50;;;;;;;3.72;2.70;;;15.70;72.80;;;;;;4972348;28;20055;-51
2022/09/27 11:04:39;;;;;;;3.72;2.60;;;15.80;71.30;;;;;;4988903;28;20077;-49
2022/09/27 11:07:20;;;;;;;3.60;3.05;;;15.80;70.90;;;;;;4970409;28;20550;-47
2022/09/27 11:10:01;;;;;;;2.25;2.05;;;15.90;70.20;;;;;;4972593;28;20038;-49
2022/09/27 11:12:34;;;;;;;3.95;2.50;;;15.90;69.80;;;;;;4965543;28;20054;-51
2022/09/27 11:15:06;;;;;;;3.13;2.13;;;15.90;69.90;;;;;;4974724;28;20042;-52
2022/09/27 11:18:10;;;;;;;3.00;2.42;;;16.00;70.00;;;;;;4961914;28;20082;-49
2022/09/27 11:20:48;;;;;;;2.00;1.90;;;16.00;70.60;;;;;;4960288;28;20058;-49
2022/09/27 11:23:19;;;;;;;3.67;2.30;;;16.10;69.80;;;;;;4951878;28;20055;-51
2022/09/27 11:25:59;;;;;;;2.08;1.98;;;16.20;69.40;;;;;;4950677;28;20422;-49
2022/09/27 11:29:16;;;;;;;2.50;2.15;;;16.20;68.60;;;;;;4972811;28;20486;-49
2022/09/27 11:32:34;;;;;;;3.53;1.67;;;16.20;69.00;;;;;;4940253;29;20055;-50
2022/09/27 11:35:36;;;;;;;3.00;2.05;;;16.10;69.00;;;;;;4928506;29;20058;-49
2022/09/27 11:38:15;;;;;;;3.15;2.35;;;16.00;69.60;;;;;;4969561;28;20093;-49
2022/09/27 11:41:37;;;;;;;1.85;1.75;;;15.80;70.00;;;;;;4949785;28;20042;-48
2022/09/27 11:44:32;;;;;;;1.85;1.08;;;15.60;71.20;;;;;;4971742;28;20054;-49
2022/09/27 11:46:58;;;;;;;1.13;0.73;;;15.30;70.30;;;;;;4950781;28;20894;-48
2022/09/27 11:49:57;;;;;;;0.75;0.60;;;15.10;69.80;;;;;;4954142;28;20507;-48
2022/09/27 11:52:36;;;;;;;0.52;0.52;;;14.90;69.90;;;;;;4945343;28;20121;-48
2022/09/27 11:55:28;;;;;;;0.80;0.68;;;14.70;70.50;;;;;;4955009;28;20112;-50
2022/09/27 11:58:22;;;;;;;1.30;1.00;;;14.50;71.50;;;;;;4961444;28;20105;-51
2022/09/27 12:01:15;;;;;;;2.15;0.93;;;14.40;73.90;;;;;;4968136;28;20085;-49
2022/09/27 12:03:42;;;;;;;1.63;1.52;;;14.30;73.40;;;;;;4943604;28;20054;-48
2022/09/27 12:06:32;;;;;;;1.67;1.25;;;14.30;74.00;;;;;;4967897;28;20525;-49
2022/09/27 12:09:05;;;;;;;1.27;1.17;;;14.30;76.20;;;;;;4955310;28;20758;-48
2022/09/27 12:11:40;;;;;;;1.45;1.20;;;14.40;74.70;;;;;;4956061;29;20046;-50
2022/09/27 12:14:39;;;;;;;2.47;1.40;;;14.40;74.70;;;;;;4964187;28;20507;-48
2022/09/27 12:17:38;;;;;;;1.58;1.40;;;14.50;74.90;;;;;;4959559;28;20047;-51
2022/09/27 12:20:17;;;;;;;1.17;1.08;;;14.50;74.10;;;;;;4980266;28;20073;-49
2022/09/27 12:22:59;;;;;;;0.73;0.70;;;14.50;73.60;;;;;;4964988;28;20153;-49
2022/09/27 12:26:05;;;;;;;1.27;1.17;;;14.50;72.50;;;;;;4969844;28;20109;-48
2022/09/27 12:28:58;;;;;;;0.65;0.57;;;14.40;72.50;;;;;;4975946;28;20046;-49
2022/09/27 12:31:53;;;;;;;1.02;0.60;;;14.30;73.20;;;;;;4967456;28;20069;-49
2022/09/27 12:34:31;;;;;;;0.65;0.40;;;14.20;73.50;;;;;;4959443;28;20039;-50
2022/09/27 12:37:04;;;;;;;0.85;0.45;;;14.10;73.50;;;;;;4952572;28;20141;-48
2022/09/27 12:39:37;;;;;;;1.38;0.22;;;14.00;73.80;;;;;;4968755;28;20104;-50
2022/09/27 12:42:33;;;;;;;0.85;0.35;;;14.00;74.70;;;;;;4969691;28;20047;-48
2022/09/27 12:45:13;;;;;;;1.10;0.30;;;13.90;75.90;;;;;;4964833;28;20054;-48
2022/09/27 12:48:05;;;;;;;0.30;0.30;;;13.90;76.30;;;;;;4965254;28;20055;-49
2022/09/27 12:50:44;;;;;;;0.57;0.30;;;14.00;77.00;;;;;;4963283;28;20126;-51
2022/09/27 12:53:22;;;;;;;0.43;0.40;;;14.00;76.60;;;;;;4964631;28;20087;-49
2022/09/27 12:56:11;;;;;;;0.57;0.40;;;14.10;76.10;;;;;;4968724;28;20042;-47
2022/09/27 12:59:09;;;;;;;0.60;0.52;;;14.20;75.90;;;;;;4976274;28;20128;-48
2022/09/27 13:02:15;;;;;;;1.13;0.52;;;14.20;76.30;;;;;;4964321;28;20051;-49
2022/09/27 13:05:05;;;;;;;0.70;0.70;;;14.30;77.20;;;;;;4960187;28;20054;-49
2022/09/27 13:07:45;;;;;;;1.75;0.98;;;14.40;76.60;;;;;;4975163;28;20038;-48
2022/09/27 13:10:49;;;;;;;1.85;0.73;;;14.50;77.20;;;;;;4959298;28;20100;-51
2022/09/27 13:13:26;;;;;;;1.17;0.82;;;14.60;77.80;;;;;;4963545;28;20137;-51
2022/09/27 13:15:59;;;;;;;0.73;0.73;;;14.80;76.70;;;;;;4961928;28;20075;-51
2022/09/27 13:18:35;;;;;;;0.57;0.50;;;14.90;76.40;;;;;;4950680;28;20046;-48
2022/09/27 13:21:07;;;;;;;1.17;0.70;;;15.00;75.50;;;;;;4965147;28;20066;-50
2022/09/27 13:23:43;;;;;;;2.67;0.70;;;15.10;75.50;;;;;;4957532;28;20133;-50
2022/09/27 13:26:42;;;;;;;1.25;0.90;;;15.20;74.40;;;;;;4958331;28;20038;-50
2022/09/27 13:29:31;;;;;;;1.92;1.45;;;15.30;73.70;;;;;;4957428;28;20043;-47
2022/09/27 13:32:15;;;;;;;1.60;1.17;;;15.40;73.80;;;;;;4985277;28;20046;-50
2022/09/27 13:35:17;;;;;;;0.88;0.88;;;15.60;74.40;;;;;;4974565;28;20050;-52
2022/09/27 13:38:00;;;;;;;2.10;1.30;;;15.80;74.40;;;;;;4958111;28;20059;-51
2022/09/27 13:40:39;;;;;;;1.80;0.82;;;16.30;76.40;;;;;;4971039;28;20057;-52
2022/09/27 13:43:24;;;;;;;2.83;0.80;;;17.00;75.40;;;;;;4954770;28;20046;-52
2022/09/27 13:46:06;;;;;;;1.27;0.80;;;17.70;72.90;;;;;;4975799;28;20046;-51
2022/09/27 13:49:00;;;;;;;2.00;0.90;;;18.20;68.30;;;;;;4962163;28;20045;-52
2022/09/27 13:51:58;;;;;;;0.82;0.60;;;18.60;65.40;;;;;;4965452;28;20049;-50
2022/09/27 13:54:32;;;;;;;1.48;0.50;;;18.70;63.30;;;;;;4975612;28;20383;-48
2022/09/27 13:57:05;;;;;;;0.52;0.50;;;18.70;62.70;;;;;;4969930;28;20499;-51
2022/09/27 13:59:49;;;;;;;1.05;0.47;;;18.60;62.40;;;;;;4990812;28;20075;-51